sensor_id;sensor_type;location;lat;lon;timestamp;temperature;humidity
4874;DHT22;2451;49.970;9.068;2022-07-15T00:02:24;16.80;97.50
4874;DHT22;2451;49.970;9.068;2022-07-15T00:04:50;16.80;97.80
4874;DHT22;2451;49.970;9.068;2022-07-15T00:07:16;16.90;97.90
4874;DHT22;2451;49.970;9.068;2022-07-15T00:09:41;16.80;98.10
4874;DHT22;2451;49.970;9.068;2022-07-15T00:12:26;16.80;98.20
4874;DHT22;2451;49.970;9.068;2022-07-15T00:14:51;16.80;98.70
4874;DHT22;2451;49.970;9.068;2022-07-15T00:17:17;16.80;98.00
4874;DHT22;2451;49.970;9.068;2022-07-15T00:19:43;16.80;98.20
4874;DHT22;2451;49.970;9.068;2022-07-15T00:22:08;16.80;98.50
4874;DHT22;2451;49.970;9.068;2022-07-15T00:24:34;16.70;98.70
4874;DHT22;2451;49.970;9.068;2022-07-15T00:27:00;16.70;98.90
4874;DHT22;2451;49.970;9.068;2022-07-15T00:29:27;16.70;99.40
4874;DHT22;2451;49.970;9.068;2022-07-15T00:31:53;16.60;99.80
4874;DHT22;2451;49.970;9.068;2022-07-15T00:34:19;16.50;99.90
4874;DHT22;2451;49.970;9.068;2022-07-15T00:36:44;16.50;99.90
4874;DHT22;2451;49.970;9.068;2022-07-15T00:39:10;16.40;99.90
4874;DHT22;2451;49.970;9.068;2022-07-15T00:41:38;16.30;99.90
4874;DHT22;2451;49.970;9.068;2022-07-15T00:44:03;16.30;99.90
4874;DHT22;2451;49.970;9.068;2022-07-15T00:46:29;16.30;99.90
4874;DHT22;2451;49.970;9.068;2022-07-15T00:48:57;16.20;99.90
4874;DHT22;2451;49.970;9.068;2022-07-15T00:51:22;16.10;99.90
4874;DHT22;2451;49.970;9.068;2022-07-15T00:53:48;16.00;99.90
4874;DHT22;2451;49.970;9.068;2022-07-15T00:56:15;16.00;99.90
4874;DHT22;2451;49.970;9.068;2022-07-15T00:58:43;16.00;99.90
4874;DHT22;2451;49.970;9.068;2022-07-15T01:01:10;15.70;99.90
4874;DHT22;2451;49.970;9.068;2022-07-15T01:03:37;15.70;99.90
4874;DHT22;2451;49.970;9.068;2022-07-15T01:06:03;15.70;99.90
4874;DHT22;2451;49.970;9.068;2022-07-15T01:08:28;15.70;99.90
4874;DHT22;2451;49.970;9.068;2022-07-15T01:10:54;15.70;99.90
4874;DHT22;2451;49.970;9.068;2022-07-15T01:13:21;15.70;99.90
4874;DHT22;2451;49.970;9.068;2022-07-15T01:15:47;15.60;99.90
4874;DHT22;2451;49.970;9.068;2022-07-15T01:18:14;15.60;99.90
4874;DHT22;2451;49.970;9.068;2022-07-15T01:20:43;15.60;99.90
4874;DHT22;2451;49.970;9.068;2022-07-15T01:23:12;15.60;99.90
4874;DHT22;2451;49.970;9.068;2022-07-15T01:25:38;15.60;99.90
4874;DHT22;2451;49.970;9.068;2022-07-15T01:28:07;15.50;99.90
4874;DHT22;2451;49.970;9.068;2022-07-15T01:30:32;15.50;99.90
4874;DHT22;2451;49.970;9.068;2022-07-15T01:32:58;15.40;99.90
4874;DHT22;2451;49.970;9.068;2022-07-15T01:35:23;15.30;99.90
4874;DHT22;2451;49.970;9.068;2022-07-15T01:37:49;15.30;99.90
4874;DHT22;2451;49.970;9.068;2022-07-15T01:40:15;15.30;99.90
4874;DHT22;2451;49.970;9.068;2022-07-15T01:42:40;15.30;99.90
4874;DHT22;2451;49.970;9.068;2022-07-15T01:45:07;15.30;99.90
4874;DHT22;2451;49.970;9.068;2022-07-15T01:47:40;15.30;99.90
4874;DHT22;2451;49.970;9.068;2022-07-15T01:50:06;15.30;99.90
4874;DHT22;2451;49.970;9.068;2022-07-15T01:52:32;15.30;99.90
4874;DHT22;2451;49.970;9.068;2022-07-15T01:54:57;15.20;99.90
4874;DHT22;2451;49.970;9.068;2022-07-15T01:57:23;15.10;99.90
4874;DHT22;2451;49.970;9.068;2022-07-15T01:59:48;15.00;99.90
4874;DHT22;2451;49.970;9.068;2022-07-15T02:02:15;14.90;99.90
4874;DHT22;2451;49.970;9.068;2022-07-15T02:04:40;14.90;99.90
4874;DHT22;2451;49.970;9.068;2022-07-15T02:07:06;14.80;99.90
4874;DHT22;2451;49.970;9.068;2022-07-15T02:09:31;14.80;99.90
4874;DHT22;2451;49.970;9.068;2022-07-15T02:11:57;14.80;99.90
4874;DHT22;2451;49.970;9.068;2022-07-15T02:14:22;14.80;99.90
4874;DHT22;2451;49.970;9.068;2022-07-15T02:16:48;14.60;99.90
4874;DHT22;2451;49.970;9.068;2022-07-15T02:19:13;14.60;99.90
4874;DHT22;2451;49.970;9.068;2022-07-15T02:21:39;14.50;99.90
4874;DHT22;2451;49.970;9.068;2022-07-15T02:24:05;14.50;99.90
4874;DHT22;2451;49.970;9.068;2022-07-15T02:26:30;14.50;99.90
4874;DHT22;2451;49.970;9.068;2022-07-15T02:28:56;14.50;99.90
4874;DHT22;2451;49.970;9.068;2022-07-15T02:31:22;14.40;99.90
4874;DHT22;2451;49.970;9.068;2022-07-15T02:33:47;14.40;99.90
4874;DHT22;2451;49.970;9.068;2022-07-15T02:36:13;14.40;99.90
4874;DHT22;2451;49.970;9.068;2022-07-15T02:38:39;14.40;99.90
4874;DHT22;2451;49.970;9.068;2022-07-15T02:41:05;14.40;99.90
4874;DHT22;2451;49.970;9.068;2022-07-15T02:43:31;14.40;99.90
4874;DHT22;2451;49.970;9.068;2022-07-15T02:45:56;14.30;99.90
4874;DHT22;2451;49.970;9.068;2022-07-15T02:48:22;14.30;99.90
4874;DHT22;2451;49.970;9.068;2022-07-15T02:50:48;14.20;99.90
4874;DHT22;2451;49.970;9.068;2022-07-15T02:53:14;14.10;99.90
4874;DHT22;2451;49.970;9.068;2022-07-15T02:55:40;14.10;99.90
4874;DHT22;2451;49.970;9.068;2022-07-15T02:58:06;14.00;99.90
4874;DHT22;2451;49.970;9.068;2022-07-15T03:00:32;14.00;99.90
4874;DHT22;2451;49.970;9.068;2022-07-15T03:02:58;14.00;99.90
4874;DHT22;2451;49.970;9.068;2022-07-15T03:05:24;14.00;99.90
4874;DHT22;2451;49.970;9.068;2022-07-15T03:07:50;14.00;99.90
4874;DHT22;2451;49.970;9.068;2022-07-15T03:10:16;14.00;99.90
4874;DHT22;2451;49.970;9.068;2022-07-15T03:12:42;13.90;99.90
4874;DHT22;2451;49.970;9.068;2022-07-15T03:15:08;13.90;99.90
4874;DHT22;2451;49.970;9.068;2022-07-15T03:17:34;13.90;99.90
4874;DHT22;2451;49.970;9.068;2022-07-15T03:19:59;13.90;99.90
4874;DHT22;2451;49.970;9.068;2022-07-15T03:22:25;13.80;99.90
4874;DHT22;2451;49.970;9.068;2022-07-15T03:24:53;13.90;99.90
4874;DHT22;2451;49.970;9.068;2022-07-15T03:27:18;13.90;99.90
4874;DHT22;2451;49.970;9.068;2022-07-15T03:29:44;13.80;99.90
4874;DHT22;2451;49.970;9.068;2022-07-15T03:32:10;13.70;99.90
4874;DHT22;2451;49.970;9.068;2022-07-15T03:34:37;13.70;99.90
4874;DHT22;2451;49.970;9.068;2022-07-15T03:37:03;13.70;99.90
4874;DHT22;2451;49.970;9.068;2022-07-15T03:39:28;13.70;99.90
4874;DHT22;2451;49.970;9.068;2022-07-15T03:41:54;13.60;99.90
4874;DHT22;2451;49.970;9.068;2022-07-15T03:44:20;13.70;99.90
4874;DHT22;2451;49.970;9.068;2022-07-15T03:46:46;13.60;99.90
4874;DHT22;2451;49.970;9.068;2022-07-15T03:49:15;13.70;99.90
4874;DHT22;2451;49.970;9.068;2022-07-15T03:51:42;13.70;99.90
4874;DHT22;2451;49.970;9.068;2022-07-15T03:54:07;13.70;99.90
4874;DHT22;2451;49.970;9.068;2022-07-15T03:56:34;13.80;99.90
4874;DHT22;2451;49.970;9.068;2022-07-15T03:59:00;13.90;99.90
4874;DHT22;2451;49.970;9.068;2022-07-15T04:01:26;14.00;99.90
4874;DHT22;2451;49.970;9.068;2022-07-15T04:03:52;14.00;99.90
4874;DHT22;2451;49.970;9.068;2022-07-15T04:06:19;14.00;99.90
4874;DHT22;2451;49.970;9.068;2022-07-15T04:08:46;14.10;99.90
4874;DHT22;2451;49.970;9.068;2022-07-15T04:11:12;14.10;99.90
4874;DHT22;2451;49.970;9.068;2022-07-15T04:13:39;14.20;99.90
4874;DHT22;2451;49.970;9.068;2022-07-15T04:16:05;14.20;99.90
4874;DHT22;2451;49.970;9.068;2022-07-15T04:18:31;14.30;99.90
4874;DHT22;2451;49.970;9.068;2022-07-15T04:20:57;14.40;99.90
4874;DHT22;2451;49.970;9.068;2022-07-15T04:23:22;14.40;99.90
4874;DHT22;2451;49.970;9.068;2022-07-15T04:25:49;14.40;99.90
4874;DHT22;2451;49.970;9.068;2022-07-15T04:28:17;14.50;99.90
4874;DHT22;2451;49.970;9.068;2022-07-15T04:30:43;14.60;99.90
4874;DHT22;2451;49.970;9.068;2022-07-15T04:33:09;14.70;99.90
4874;DHT22;2451;49.970;9.068;2022-07-15T04:35:34;14.70;99.90
4874;DHT22;2451;49.970;9.068;2022-07-15T04:38:00;14.80;99.90
4874;DHT22;2451;49.970;9.068;2022-07-15T04:40:25;14.90;99.90
4874;DHT22;2451;49.970;9.068;2022-07-15T04:42:51;14.90;99.90
4874;DHT22;2451;49.970;9.068;2022-07-15T04:45:16;14.90;99.90
4874;DHT22;2451;49.970;9.068;2022-07-15T04:47:42;14.90;99.90
4874;DHT22;2451;49.970;9.068;2022-07-15T04:50:08;15.00;99.90
4874;DHT22;2451;49.970;9.068;2022-07-15T04:52:52;15.10;99.90
4874;DHT22;2451;49.970;9.068;2022-07-15T04:55:18;15.10;99.90
4874;DHT22;2451;49.970;9.068;2022-07-15T04:57:43;15.10;99.90
4874;DHT22;2451;49.970;9.068;2022-07-15T05:00:09;15.20;99.90
4874;DHT22;2451;49.970;9.068;2022-07-15T05:02:35;15.10;99.90
4874;DHT22;2451;49.970;9.068;2022-07-15T05:05:01;15.20;99.90
4874;DHT22;2451;49.970;9.068;2022-07-15T05:07:27;15.30;99.90
4874;DHT22;2451;49.970;9.068;2022-07-15T05:09:52;15.30;99.90
4874;DHT22;2451;49.970;9.068;2022-07-15T05:12:18;15.40;99.90
4874;DHT22;2451;49.970;9.068;2022-07-15T05:14:44;15.40;99.90
4874;DHT22;2451;49.970;9.068;2022-07-15T05:17:09;15.50;99.90
4874;DHT22;2451;49.970;9.068;2022-07-15T05:19:35;15.50;99.90
4874;DHT22;2451;49.970;9.068;2022-07-15T05:22:00;15.70;99.90
4874;DHT22;2451;49.970;9.068;2022-07-15T05:24:26;15.80;99.90
4874;DHT22;2451;49.970;9.068;2022-07-15T05:26:52;15.90;99.90
4874;DHT22;2451;49.970;9.068;2022-07-15T05:29:18;16.10;99.90
4874;DHT22;2451;49.970;9.068;2022-07-15T05:31:47;16.10;99.90
4874;DHT22;2451;49.970;9.068;2022-07-15T05:34:13;16.20;99.90
4874;DHT22;2451;49.970;9.068;2022-07-15T05:36:38;16.20;99.90
4874;DHT22;2451;49.970;9.068;2022-07-15T05:39:04;16.30;99.90
4874;DHT22;2451;49.970;9.068;2022-07-15T05:41:30;16.30;99.90
4874;DHT22;2451;49.970;9.068;2022-07-15T05:43:57;16.30;99.90
4874;DHT22;2451;49.970;9.068;2022-07-15T05:46:23;16.30;99.90
4874;DHT22;2451;49.970;9.068;2022-07-15T05:48:49;16.40;99.90
4874;DHT22;2451;49.970;9.068;2022-07-15T05:51:14;16.40;99.90
4874;DHT22;2451;49.970;9.068;2022-07-15T05:53:40;16.40;99.90
4874;DHT22;2451;49.970;9.068;2022-07-15T05:56:06;16.40;99.90
4874;DHT22;2451;49.970;9.068;2022-07-15T05:58:31;16.50;99.90
4874;DHT22;2451;49.970;9.068;2022-07-15T06:00:57;16.50;99.90
4874;DHT22;2451;49.970;9.068;2022-07-15T06:03:22;16.50;99.90
4874;DHT22;2451;49.970;9.068;2022-07-15T06:05:48;16.50;99.90
4874;DHT22;2451;49.970;9.068;2022-07-15T06:08:14;16.70;99.90
4874;DHT22;2451;49.970;9.068;2022-07-15T06:10:41;16.70;99.90
4874;DHT22;2451;49.970;9.068;2022-07-15T06:13:06;16.70;99.90
4874;DHT22;2451;49.970;9.068;2022-07-15T06:15:32;16.80;99.90
4874;DHT22;2451;49.970;9.068;2022-07-15T06:17:58;16.80;99.90
4874;DHT22;2451;49.970;9.068;2022-07-15T06:20:23;16.80;99.90
4874;DHT22;2451;49.970;9.068;2022-07-15T06:22:49;16.90;99.90
4874;DHT22;2451;49.970;9.068;2022-07-15T06:25:14;16.90;99.90
4874;DHT22;2451;49.970;9.068;2022-07-15T06:27:40;17.10;99.90
4874;DHT22;2451;49.970;9.068;2022-07-15T06:30:07;17.20;99.90
4874;DHT22;2451;49.970;9.068;2022-07-15T06:32:33;17.40;99.90
4874;DHT22;2451;49.970;9.068;2022-07-15T06:34:59;17.50;99.90
4874;DHT22;2451;49.970;9.068;2022-07-15T06:37:25;17.70;99.90
4874;DHT22;2451;49.970;9.068;2022-07-15T06:39:51;17.90;99.90
4874;DHT22;2451;49.970;9.068;2022-07-15T06:42:18;18.20;99.90
4874;DHT22;2451;49.970;9.068;2022-07-15T06:44:43;18.30;99.90
4874;DHT22;2451;49.970;9.068;2022-07-15T06:47:09;18.50;99.90
4874;DHT22;2451;49.970;9.068;2022-07-15T06:49:35;18.70;99.90
4874;DHT22;2451;49.970;9.068;2022-07-15T06:52:03;18.70;99.90
4874;DHT22;2451;49.970;9.068;2022-07-15T06:54:29;18.70;99.90
4874;DHT22;2451;49.970;9.068;2022-07-15T06:56:55;18.60;99.90
4874;DHT22;2451;49.970;9.068;2022-07-15T06:59:21;18.60;99.90
4874;DHT22;2451;49.970;9.068;2022-07-15T07:01:46;18.50;99.90
4874;DHT22;2451;49.970;9.068;2022-07-15T07:04:12;18.40;99.90
4874;DHT22;2451;49.970;9.068;2022-07-15T07:06:38;18.30;99.90
4874;DHT22;2451;49.970;9.068;2022-07-15T07:09:04;18.20;99.90
4874;DHT22;2451;49.970;9.068;2022-07-15T07:11:29;18.30;99.90
4874;DHT22;2451;49.970;9.068;2022-07-15T07:13:55;18.40;99.90
4874;DHT22;2451;49.970;9.068;2022-07-15T07:16:21;18.30;99.90
4874;DHT22;2451;49.970;9.068;2022-07-15T07:18:46;18.40;99.90
4874;DHT22;2451;49.970;9.068;2022-07-15T07:21:13;18.60;99.90
4874;DHT22;2451;49.970;9.068;2022-07-15T07:23:39;18.90;99.90
4874;DHT22;2451;49.970;9.068;2022-07-15T07:26:09;19.20;99.90
4874;DHT22;2451;49.970;9.068;2022-07-15T07:28:35;19.40;99.90
4874;DHT22;2451;49.970;9.068;2022-07-15T07:31:04;19.50;99.90
4874;DHT22;2451;49.970;9.068;2022-07-15T07:33:29;19.70;99.90
4874;DHT22;2451;49.970;9.068;2022-07-15T07:35:55;19.70;99.90
4874;DHT22;2451;49.970;9.068;2022-07-15T07:38:20;19.60;99.90
4874;DHT22;2451;49.970;9.068;2022-07-15T07:40:46;19.80;99.90
4874;DHT22;2451;49.970;9.068;2022-07-15T07:43:15;19.80;99.90
4874;DHT22;2451;49.970;9.068;2022-07-15T07:45:41;19.70;99.90
4874;DHT22;2451;49.970;9.068;2022-07-15T07:48:07;19.80;99.90
4874;DHT22;2451;49.970;9.068;2022-07-15T07:50:33;19.90;99.90
4874;DHT22;2451;49.970;9.068;2022-07-15T07:52:58;19.90;99.90
4874;DHT22;2451;49.970;9.068;2022-07-15T07:55:24;19.80;99.90
4874;DHT22;2451;49.970;9.068;2022-07-15T07:57:52;19.70;99.90
4874;DHT22;2451;49.970;9.068;2022-07-15T08:00:18;19.50;99.90
4874;DHT22;2451;49.970;9.068;2022-07-15T08:02:44;19.50;99.90
4874;DHT22;2451;49.970;9.068;2022-07-15T08:05:11;19.80;99.90
4874;DHT22;2451;49.970;9.068;2022-07-15T08:07:37;20.10;99.90
4874;DHT22;2451;49.970;9.068;2022-07-15T08:10:04;20.50;99.90
4874;DHT22;2451;49.970;9.068;2022-07-15T08:12:30;20.90;99.90
4874;DHT22;2451;49.970;9.068;2022-07-15T08:14:55;21.30;99.90
4874;DHT22;2451;49.970;9.068;2022-07-15T08:17:22;21.60;99.90
4874;DHT22;2451;49.970;9.068;2022-07-15T08:19:48;21.80;99.90
4874;DHT22;2451;49.970;9.068;2022-07-15T08:22:13;21.70;99.60
4874;DHT22;2451;49.970;9.068;2022-07-15T08:24:39;21.70;99.70
4874;DHT22;2451;49.970;9.068;2022-07-15T08:27:05;21.90;99.90
4874;DHT22;2451;49.970;9.068;2022-07-15T08:29:31;22.10;99.00
4874;DHT22;2451;49.970;9.068;2022-07-15T08:31:56;22.30;98.60
4874;DHT22;2451;49.970;9.068;2022-07-15T08:34:22;22.50;98.00
4874;DHT22;2451;49.970;9.068;2022-07-15T08:36:48;22.80;97.80
4874;DHT22;2451;49.970;9.068;2022-07-15T08:39:13;22.90;97.50
4874;DHT22;2451;49.970;9.068;2022-07-15T08:41:40;23.20;97.00
4874;DHT22;2451;49.970;9.068;2022-07-15T08:44:06;23.50;96.10
4874;DHT22;2451;49.970;9.068;2022-07-15T08:46:33;23.40;95.40
4874;DHT22;2451;49.970;9.068;2022-07-15T08:49:04;23.60;95.20
4874;DHT22;2451;49.970;9.068;2022-07-15T08:51:32;23.80;95.20
4874;DHT22;2451;49.970;9.068;2022-07-15T08:53:58;24.00;94.60
4874;DHT22;2451;49.970;9.068;2022-07-15T08:56:24;24.30;94.80
4874;DHT22;2451;49.970;9.068;2022-07-15T08:58:50;24.70;93.60
4874;DHT22;2451;49.970;9.068;2022-07-15T09:01:15;24.90;91.80
4874;DHT22;2451;49.970;9.068;2022-07-15T09:03:41;25.00;91.70
4874;DHT22;2451;49.970;9.068;2022-07-15T09:06:07;25.10;91.00
4874;DHT22;2451;49.970;9.068;2022-07-15T09:08:32;25.10;91.30
4874;DHT22;2451;49.970;9.068;2022-07-15T09:11:00;25.00;89.40
4874;DHT22;2451;49.970;9.068;2022-07-15T09:13:32;24.80;90.30
4874;DHT22;2451;49.970;9.068;2022-07-15T09:16:07;24.60;91.60
4874;DHT22;2451;49.970;9.068;2022-07-15T09:18:37;24.10;91.00
4874;DHT22;2451;49.970;9.068;2022-07-15T09:21:14;23.80;91.00
4874;DHT22;2451;49.970;9.068;2022-07-15T09:23:41;23.40;91.90
4874;DHT22;2451;49.970;9.068;2022-07-15T09:28:55;23.10;92.40
4874;DHT22;2451;49.970;9.068;2022-07-15T09:34:12;23.00;91.90
4874;DHT22;2451;49.970;9.068;2022-07-15T09:36:42;23.00;91.90
4874;DHT22;2451;49.970;9.068;2022-07-15T09:39:08;22.90;91.50
4874;DHT22;2451;49.970;9.068;2022-07-15T09:41:36;22.90;91.50
4874;DHT22;2451;49.970;9.068;2022-07-15T09:44:18;22.90;91.10
4874;DHT22;2451;49.970;9.068;2022-07-15T09:52:02;22.80;91.50
4874;DHT22;2451;49.970;9.068;2022-07-15T09:54:30;23.10;91.50
4874;DHT22;2451;49.970;9.068;2022-07-15T09:56:58;23.50;91.20
4874;DHT22;2451;49.970;9.068;2022-07-15T09:59:24;23.70;90.20
4874;DHT22;2451;49.970;9.068;2022-07-15T10:01:50;24.20;88.80
4874;DHT22;2451;49.970;9.068;2022-07-15T10:04:17;24.70;89.30
4874;DHT22;2451;49.970;9.068;2022-07-15T10:06:44;24.80;90.40
4874;DHT22;2451;49.970;9.068;2022-07-15T10:09:12;25.40;84.70
4874;DHT22;2451;49.970;9.068;2022-07-15T10:11:47;25.30;83.50
4874;DHT22;2451;49.970;9.068;2022-07-15T10:22:00;24.90;83.50
4874;DHT22;2451;49.970;9.068;2022-07-15T10:24:40;24.70;85.50
4874;DHT22;2451;49.970;9.068;2022-07-15T10:27:23;25.20;88.00
4874;DHT22;2451;49.970;9.068;2022-07-15T10:29:51;25.60;81.60
4874;DHT22;2451;49.970;9.068;2022-07-15T10:32:17;25.50;82.20
4874;DHT22;2451;49.970;9.068;2022-07-15T10:34:43;25.40;81.40
4874;DHT22;2451;49.970;9.068;2022-07-15T10:37:10;25.30;82.60
4874;DHT22;2451;49.970;9.068;2022-07-15T10:39:58;25.20;80.80
4874;DHT22;2451;49.970;9.068;2022-07-15T10:42:58;25.10;81.90
4874;DHT22;2451;49.970;9.068;2022-07-15T10:45:24;24.80;81.10
4874;DHT22;2451;49.970;9.068;2022-07-15T10:48:28;24.70;83.70
4874;DHT22;2451;49.970;9.068;2022-07-15T10:50:55;24.20;82.50
4874;DHT22;2451;49.970;9.068;2022-07-15T10:53:24;24.00;83.70
4874;DHT22;2451;49.970;9.068;2022-07-15T10:55:50;23.90;82.80
4874;DHT22;2451;49.970;9.068;2022-07-15T10:58:16;23.90;82.50
4874;DHT22;2451;49.970;9.068;2022-07-15T11:00:43;23.90;82.30
4874;DHT22;2451;49.970;9.068;2022-07-15T11:03:19;24.10;82.70
4874;DHT22;2451;49.970;9.068;2022-07-15T11:13:44;24.80;82.90
4874;DHT22;2451;49.970;9.068;2022-07-15T11:16:12;24.70;81.90
4874;DHT22;2451;49.970;9.068;2022-07-15T11:18:51;24.50;80.40
4874;DHT22;2451;49.970;9.068;2022-07-15T11:21:17;24.50;81.50
4874;DHT22;2451;49.970;9.068;2022-07-15T11:23:44;24.90;84.20
4874;DHT22;2451;49.970;9.068;2022-07-15T11:26:10;25.40;81.60
4874;DHT22;2451;49.970;9.068;2022-07-15T11:28:36;25.70;83.40
4874;DHT22;2451;49.970;9.068;2022-07-15T11:31:02;26.20;80.70
4874;DHT22;2451;49.970;9.068;2022-07-15T11:33:28;26.60;79.50
4874;DHT22;2451;49.970;9.068;2022-07-15T11:36:02;27.00;77.70
4874;DHT22;2451;49.970;9.068;2022-07-15T11:38:31;27.60;75.20
4874;DHT22;2451;49.970;9.068;2022-07-15T11:40:59;27.90;72.10
4874;DHT22;2451;49.970;9.068;2022-07-15T11:43:43;28.30;75.60
4874;DHT22;2451;49.970;9.068;2022-07-15T11:46:29;27.80;72.40
4874;DHT22;2451;49.970;9.068;2022-07-15T11:48:56;27.10;74.10
4874;DHT22;2451;49.970;9.068;2022-07-15T11:51:31;26.40;72.40
4874;DHT22;2451;49.970;9.068;2022-07-15T11:53:58;26.20;76.10
4874;DHT22;2451;49.970;9.068;2022-07-15T11:56:24;25.80;74.50
4874;DHT22;2451;49.970;9.068;2022-07-15T11:58:52;25.50;76.70
4874;DHT22;2451;49.970;9.068;2022-07-15T12:01:28;25.00;77.40
4874;DHT22;2451;49.970;9.068;2022-07-15T12:03:57;24.50;76.40
4874;DHT22;2451;49.970;9.068;2022-07-15T12:06:30;24.20;77.30
4874;DHT22;2451;49.970;9.068;2022-07-15T12:09:01;23.90;78.60
4874;DHT22;2451;49.970;9.068;2022-07-15T12:11:31;23.80;77.80
4874;DHT22;2451;49.970;9.068;2022-07-15T12:13:58;23.90;78.70
4874;DHT22;2451;49.970;9.068;2022-07-15T12:19:20;23.70;79.70
4874;DHT22;2451;49.970;9.068;2022-07-15T12:21:48;23.70;79.80
4874;DHT22;2451;49.970;9.068;2022-07-15T12:24:19;23.80;79.10
4874;DHT22;2451;49.970;9.068;2022-07-15T12:29:23;24.00;79.60
4874;DHT22;2451;49.970;9.068;2022-07-15T12:32:08;24.20;79.90
4874;DHT22;2451;49.970;9.068;2022-07-15T12:37:13;26.10;75.80
4874;DHT22;2451;49.970;9.068;2022-07-15T12:40:03;26.70;75.60
4874;DHT22;2451;49.970;9.068;2022-07-15T12:42:38;26.40;72.70
4874;DHT22;2451;49.970;9.068;2022-07-15T12:45:15;26.20;72.00
4874;DHT22;2451;49.970;9.068;2022-07-15T12:48:00;25.90;72.10
4874;DHT22;2451;49.970;9.068;2022-07-15T12:50:31;25.70;73.20
4874;DHT22;2451;49.970;9.068;2022-07-15T12:52:57;25.30;74.30
4874;DHT22;2451;49.970;9.068;2022-07-15T12:55:26;25.20;73.70
4874;DHT22;2451;49.970;9.068;2022-07-15T12:58:02;25.00;75.20
4874;DHT22;2451;49.970;9.068;2022-07-15T13:00:28;25.00;73.20
4874;DHT22;2451;49.970;9.068;2022-07-15T13:03:05;25.40;75.60
4874;DHT22;2451;49.970;9.068;2022-07-15T13:05:39;25.40;73.20
4874;DHT22;2451;49.970;9.068;2022-07-15T13:10:35;26.30;73.50
4874;DHT22;2451;49.970;9.068;2022-07-15T13:13:01;26.70;69.70
4874;DHT22;2451;49.970;9.068;2022-07-15T13:15:27;26.80;69.50
4874;DHT22;2451;49.970;9.068;2022-07-15T13:17:53;27.00;67.90
4874;DHT22;2451;49.970;9.068;2022-07-15T13:20:19;26.40;69.10
4874;DHT22;2451;49.970;9.068;2022-07-15T13:22:45;25.80;69.40
4874;DHT22;2451;49.970;9.068;2022-07-15T13:25:11;25.60;70.70
4874;DHT22;2451;49.970;9.068;2022-07-15T13:27:37;25.60;70.00
4874;DHT22;2451;49.970;9.068;2022-07-15T13:30:04;25.70;69.70
4874;DHT22;2451;49.970;9.068;2022-07-15T13:32:30;26.00;66.30
4874;DHT22;2451;49.970;9.068;2022-07-15T13:34:55;26.50;68.70
4874;DHT22;2451;49.970;9.068;2022-07-15T13:37:21;27.00;68.30
4874;DHT22;2451;49.970;9.068;2022-07-15T13:39:46;27.40;69.20
4874;DHT22;2451;49.970;9.068;2022-07-15T13:42:12;27.70;68.60
4874;DHT22;2451;49.970;9.068;2022-07-15T13:44:37;27.50;66.10
4874;DHT22;2451;49.970;9.068;2022-07-15T13:47:03;27.10;66.30
4874;DHT22;2451;49.970;9.068;2022-07-15T13:49:28;26.90;64.60
4874;DHT22;2451;49.970;9.068;2022-07-15T13:52:12;27.20;66.20
4874;DHT22;2451;49.970;9.068;2022-07-15T13:54:38;27.60;66.10
4874;DHT22;2451;49.970;9.068;2022-07-15T13:57:04;27.80;65.10
4874;DHT22;2451;49.970;9.068;2022-07-15T13:59:29;27.90;63.90
4874;DHT22;2451;49.970;9.068;2022-07-15T14:01:55;28.00;63.70
4874;DHT22;2451;49.970;9.068;2022-07-15T14:04:20;28.10;63.70
4874;DHT22;2451;49.970;9.068;2022-07-15T14:06:46;27.70;63.20
4874;DHT22;2451;49.970;9.068;2022-07-15T14:09:12;27.30;61.00
4874;DHT22;2451;49.970;9.068;2022-07-15T14:11:37;26.90;61.70
4874;DHT22;2451;49.970;9.068;2022-07-15T14:14:03;26.60;62.60
4874;DHT22;2451;49.970;9.068;2022-07-15T14:16:29;26.30;63.00
4874;DHT22;2451;49.970;9.068;2022-07-15T14:18:54;26.40;66.20
4874;DHT22;2451;49.970;9.068;2022-07-15T14:21:20;26.30;63.80
4874;DHT22;2451;49.970;9.068;2022-07-15T14:23:47;26.30;64.40
4874;DHT22;2451;49.970;9.068;2022-07-15T14:26:13;26.30;64.20
4874;DHT22;2451;49.970;9.068;2022-07-15T14:28:40;26.20;64.30
4874;DHT22;2451;49.970;9.068;2022-07-15T14:31:07;26.00;64.20
4874;DHT22;2451;49.970;9.068;2022-07-15T14:33:33;25.70;65.00
4874;DHT22;2451;49.970;9.068;2022-07-15T14:35:59;25.50;64.60
4874;DHT22;2451;49.970;9.068;2022-07-15T14:38:25;25.50;65.50
4874;DHT22;2451;49.970;9.068;2022-07-15T14:40:51;25.50;67.70
4874;DHT22;2451;49.970;9.068;2022-07-15T14:43:16;25.80;64.00
4874;DHT22;2451;49.970;9.068;2022-07-15T14:45:42;26.00;65.60
4874;DHT22;2451;49.970;9.068;2022-07-15T14:48:07;26.40;64.80
4874;DHT22;2451;49.970;9.068;2022-07-15T14:50:33;26.60;66.70
4874;DHT22;2451;49.970;9.068;2022-07-15T14:53:00;26.40;63.80
4874;DHT22;2451;49.970;9.068;2022-07-15T14:55:26;26.40;63.10
4874;DHT22;2451;49.970;9.068;2022-07-15T14:57:52;26.50;64.30
4874;DHT22;2451;49.970;9.068;2022-07-15T15:00:17;26.80;63.80
4874;DHT22;2451;49.970;9.068;2022-07-15T15:02:43;26.90;63.30
4874;DHT22;2451;49.970;9.068;2022-07-15T15:05:09;26.90;61.30
4874;DHT22;2451;49.970;9.068;2022-07-15T15:07:35;27.10;62.00
4874;DHT22;2451;49.970;9.068;2022-07-15T15:10:00;27.30;61.20
4874;DHT22;2451;49.970;9.068;2022-07-15T15:12:26;27.30;58.90
4874;DHT22;2451;49.970;9.068;2022-07-15T15:14:52;27.30;58.40
4874;DHT22;2451;49.970;9.068;2022-07-15T15:17:17;27.30;60.20
4874;DHT22;2451;49.970;9.068;2022-07-15T15:19:43;27.30;60.70
4874;DHT22;2451;49.970;9.068;2022-07-15T15:22:08;27.10;60.10
4874;DHT22;2451;49.970;9.068;2022-07-15T15:24:34;27.10;60.30
4874;DHT22;2451;49.970;9.068;2022-07-15T15:27:00;27.20;58.30
4874;DHT22;2451;49.970;9.068;2022-07-15T15:29:30;27.20;58.50
4874;DHT22;2451;49.970;9.068;2022-07-15T15:31:56;27.50;59.50
4874;DHT22;2451;49.970;9.068;2022-07-15T15:34:22;27.50;57.80
4874;DHT22;2451;49.970;9.068;2022-07-15T15:36:48;27.40;58.00
4874;DHT22;2451;49.970;9.068;2022-07-15T15:39:13;27.40;57.60
4874;DHT22;2451;49.970;9.068;2022-07-15T15:41:39;27.30;57.20
4874;DHT22;2451;49.970;9.068;2022-07-15T15:44:05;27.00;55.90
4874;DHT22;2451;49.970;9.068;2022-07-15T15:46:31;26.90;56.50
4874;DHT22;2451;49.970;9.068;2022-07-15T15:48:57;26.80;56.40
4874;DHT22;2451;49.970;9.068;2022-07-15T15:51:22;26.60;57.00
4874;DHT22;2451;49.970;9.068;2022-07-15T15:53:48;26.50;56.70
4874;DHT22;2451;49.970;9.068;2022-07-15T15:56:14;26.60;57.20
4874;DHT22;2451;49.970;9.068;2022-07-15T15:58:39;26.50;57.30
4874;DHT22;2451;49.970;9.068;2022-07-15T16:01:05;26.40;57.70
4874;DHT22;2451;49.970;9.068;2022-07-15T16:03:30;26.20;58.70
4874;DHT22;2451;49.970;9.068;2022-07-15T16:05:56;26.00;57.80
4874;DHT22;2451;49.970;9.068;2022-07-15T16:08:21;25.60;58.20
4874;DHT22;2451;49.970;9.068;2022-07-15T16:10:48;25.40;58.90
4874;DHT22;2451;49.970;9.068;2022-07-15T16:13:13;25.40;59.30
4874;DHT22;2451;49.970;9.068;2022-07-15T16:15:39;25.40;58.60
4874;DHT22;2451;49.970;9.068;2022-07-15T16:18:04;25.50;58.60
4874;DHT22;2451;49.970;9.068;2022-07-15T16:20:30;25.50;58.50
4874;DHT22;2451;49.970;9.068;2022-07-15T16:22:55;25.70;58.80
4874;DHT22;2451;49.970;9.068;2022-07-15T16:25:31;25.90;57.40
4874;DHT22;2451;49.970;9.068;2022-07-15T16:27:59;26.10;57.40
4874;DHT22;2451;49.970;9.068;2022-07-15T16:30:25;26.20;56.70
4874;DHT22;2451;49.970;9.068;2022-07-15T16:32:52;26.30;57.40
4874;DHT22;2451;49.970;9.068;2022-07-15T16:35:19;26.20;57.20
4874;DHT22;2451;49.970;9.068;2022-07-15T16:37:45;26.20;57.30
4874;DHT22;2451;49.970;9.068;2022-07-15T16:40:11;26.30;57.90